Mariner A — 9HVA7 — position and weather

sailwx.info

Track history (hours):
 
Tides and Currents Weather Stations Pressure Air Temp Water Temp Dewpoint Dewpoint Depression Visibility Wind Speed Wind Dir Waves Ship Positions

Mariner A

Last reported at 2016-Dec-01 06:10 UTC. Time now 2016-Dec-04 12:19 UTC.
Position N 37°23' E 015°30'.

Length 176 m; draft 7.8 m.

Type: Tanker. MMSI: 215817000.

Date/timePositionNaut miles runAvg speedWind from/ knotsBaromVisibWave heightAir tempDewpointWater temp
2016-Dec-01 06:10N 37°23' E 015°30'1 1.2
2016-Dec-01 05:23N 37°24' E 015°30'1 1.2
2016-Dec-01 04:27N 37°25' E 015°30'1 1.0
2016-Dec-01 03:32N 37°26' E 015°30'74 1.5
2016-Nov-29 03:33N 38°07' E 016°48'38010.4
2016-Nov-27 15:05N 44°07' E 014°02'913.2
2016-Nov-27 14:25N 44°14' E 013°56'1213.3
2016-Nov-27 13:33N 44°24' E 013°47'1313.4
2016-Nov-27 12:33N 44°35' E 013°37'1313.4
2016-Nov-27 11:33N 44°46' E 013°26'1413.5
2016-Nov-27 10:33N 44°57' E 013°16'1413.6
2016-Nov-27 09:33N 45°09' E 013°05'1313.3
2016-Nov-27 08:33N 45°22' E 013°02'1313.1
2016-Nov-27 07:33N 45°31' E 013°15'1313.0
2016-Nov-27 06:33N 45°37' E 013°31'10 9.1
2016-Nov-27 05:30N 45°34' E 013°44'0 0.0
2016-Nov-27 04:24N 45°34' E 013°44'0 0.0
2016-Nov-27 03:30N 45°34' E 013°44'0 0.0
2016-Nov-27 02:30N 45°34' E 013°44'0 0.0
2016-Nov-27 01:24N 45°34' E 013°44'0 0.0
2016-Nov-27 00:24N 45°34' E 013°44'0 0.0
2016-Nov-26 23:30N 45°34' E 013°44'0 0.0
2016-Nov-26 22:30N 45°34' E 013°44'0 0.0
2016-Nov-26 21:12N 45°34' E 013°44'0 0.0
2016-Nov-26 20:30N 45°34' E 013°44'0 0.0
2016-Nov-26 19:30N 45°34' E 013°44'0 0.0
2016-Nov-26 18:17N 45°34' E 013°44'0 0.0
2016-Nov-26 17:29N 45°34' E 013°44'0 0.0
2016-Nov-26 16:29N 45°34' E 013°44'0 0.0
2016-Nov-26 15:17N 45°34' E 013°44'0 0.0
2016-Nov-26 14:11N 45°34' E 013°44'0 0.0
2016-Nov-26 13:23N 45°34' E 013°44'0 0.0
2016-Nov-26 12:23N 45°34' E 013°44'0 0.0
2016-Nov-26 11:29N 45°34' E 013°44'0 0.0
2016-Nov-26 10:23N 45°34' E 013°44'0 0.0
2016-Nov-26 09:29N 45°34' E 013°44'0 0.0
2016-Nov-26 08:23N 45°34' E 013°44'0 0.0
2016-Nov-26 07:29N 45°34' E 013°44'0 0.0
2016-Nov-26 06:29N 45°34' E 013°44'0 0.0
2016-Nov-26 05:29N 45°34' E 013°44'0 0.0
2016-Nov-26 04:29N 45°34' E 013°44'0 0.0
2016-Nov-26 03:29N 45°34' E 013°44'0 0.0
2016-Nov-26 02:29N 45°34' E 013°44'0 0.0
2016-Nov-26 01:29N 45°34' E 013°44'0 0.0
2016-Nov-26 00:29N 45°34' E 013°44'0 0.0
2016-Nov-25 23:29N 45°34' E 013°44'0 0.0
2016-Nov-25 22:29N 45°34' E 013°44'0 0.0
2016-Nov-25 21:29N 45°34' E 013°44'0 0.0
2016-Nov-25 20:29N 45°34' E 013°44'0 0.0
2016-Nov-25 19:23N 45°34' E 013°44'0 0.0
2016-Nov-25 18:29N 45°34' E 013°44'0 0.0
2016-Nov-25 17:29N 45°34' E 013°44'0 0.0
2016-Nov-25 15:29N 45°34' E 013°44'0 0.0
2016-Nov-25 14:11N 45°34' E 013°44'0 0.0
2016-Nov-25 13:29N 45°34' E 013°44'0 0.0
2016-Nov-25 12:05N 45°34' E 013°44'0 0.0
2016-Nov-25 11:29N 45°34' E 013°44'1 0.8
2016-Nov-25 10:33N 45°34' E 013°43'1 1.0
2016-Nov-25 09:27N 45°34' E 013°42'0 0.0
2016-Nov-25 08:33N 45°34' E 013°42'0 0.0
2016-Nov-25 07:33N 45°34' E 013°42'0 0.0
2016-Nov-25 06:33N 45°34' E 013°42'0 0.0
2016-Nov-25 05:33N 45°34' E 013°42'0 0.0
2016-Nov-25 04:33N 45°34' E 013°42'0 0.0
2016-Nov-25 03:27N 45°34' E 013°42'0 0.0
2016-Nov-25 02:33N 45°34' E 013°42'0 0.0
2016-Nov-25 01:33N 45°34' E 013°42'0 0.0
2016-Nov-25 00:27N 45°34' E 013°42'0 0.0
2016-Nov-24 23:33N 45°34' E 013°42'0 0.0
2016-Nov-24 22:27N 45°34' E 013°42'0 0.0
2016-Nov-24 21:15N 45°34' E 013°42'0 0.0
2016-Nov-24 20:33N 45°34' E 013°42'0 0.0
2016-Nov-24 19:09N 45°34' E 013°42'0 0.0
2016-Nov-24 18:27N 45°34' E 013°42'0 0.0
2016-Nov-24 17:33N 45°34' E 013°42'0 0.0
2016-Nov-24 16:33N 45°34' E 013°42'0 0.1
2016-Nov-24 15:27N 45°34' E 013°42'0 0.0
2016-Nov-24 14:21N 45°34' E 013°42'0 0.0
2016-Nov-24 13:09N 45°34' E 013°42'0 0.0
2016-Nov-24 12:33N 45°34' E 013°42'0 0.1
2016-Nov-24 11:33N 45°34' E 013°42'0 0.0
2016-Nov-24 09:27N 45°34' E 013°42'0 0.0
2016-Nov-24 08:33N 45°34' E 013°42'0 0.0
2016-Nov-24 07:32N 45°34' E 013°42'0 0.0
2016-Nov-24 05:26N 45°34' E 013°42'0 0.0
2016-Nov-24 04:32N 45°34' E 013°42'0 0.0
2016-Nov-24 03:26N 45°34' E 013°42'0 0.0
2016-Nov-24 02:14N 45°34' E 013°42'0 0.0
2016-Nov-24 01:32N 45°34' E 013°42'0 0.0
2016-Nov-24 00:14N 45°34' E 013°42'0 0.0
2016-Nov-23 23:32N 45°34' E 013°42'0 0.0
2016-Nov-23 22:26N 45°34' E 013°42'0 0.0
2016-Nov-23 21:26N 45°34' E 013°42'0 0.0
2016-Nov-23 20:32N 45°34' E 013°42'0 0.0
2016-Nov-23 19:32N 45°34' E 013°42'0 0.0
2016-Nov-23 18:32N 45°34' E 013°42'0 0.0
2016-Nov-23 17:26N 45°34' E 013°42'0 0.1
2016-Nov-23 16:26N 45°34' E 013°42'0 0.1
2016-Nov-23 15:08N 45°34' E 013°42'0 0.0
2016-Nov-23 14:14N 45°34' E 013°42'0 0.0
2016-Nov-23 13:20N 45°34' E 013°42'0 0.0
2016-Nov-23 12:26N 45°34' E 013°42'0 0.2
2016-Nov-23 11:32N 45°34' E 013°42'0 0.0
2016-Nov-23 09:26N 45°34' E 013°42'0 0.0
2016-Nov-23 08:32N 45°34' E 013°42'0 0.0
2016-Nov-23 07:20N 45°34' E 013°42'0 0.0
2016-Nov-23 06:32N 45°34' E 013°42'0 0.0
2016-Nov-23 03:08N 45°34' E 013°42'0 0.0
2016-Nov-23 02:32N 45°34' E 013°42'0 0.0
2016-Nov-23 00:26N 45°34' E 013°42'0 0.0
2016-Nov-22 23:19N 45°34' E 013°42'0 0.0
2016-Nov-22 22:31N 45°34' E 013°42'0 0.0
2016-Nov-22 20:34N 45°34' E 013°42'7 7.1
2016-Nov-22 19:34N 45°35' E 013°32'2110.7
2016-Nov-22 17:34N 45°18' E 013°13'1312.9
2016-Nov-22 16:33N 45°05' E 013°17'1312.9
2016-Nov-22 15:34N 44°54' E 013°25'1312.9
2016-Nov-22 14:33N 44°43' E 013°35'1313.0
2016-Nov-22 13:34N 44°32' E 013°45'  
Track history (hours):
 
Tides and Currents Weather Stations Pressure Air Temp Water Temp Dewpoint Dewpoint Depression Visibility Wind Speed Wind Dir Waves Ship Positions

Mariner A

Last reported at 2016-Dec-01 06:10 UTC. Time now 2016-Dec-04 12:19 UTC.
Position N 37°23' E 015°30'.

Length 176 m; draft 7.8 m.

Type: Tanker. MMSI: 215817000.

Date/timePositionNaut miles runAvg speedWind from/ knotsBaromVisibWave heightAir tempDewpointWater temp
2016-Dec-01 06:10N 37°23' E 015°30'1 1.2
2016-Dec-01 05:23N 37°24' E 015°30'1 1.2
2016-Dec-01 04:27N 37°25' E 015°30'1 1.0
2016-Dec-01 03:32N 37°26' E 015°30'74 1.5
2016-Nov-29 03:33N 38°07' E 016°48'38010.4
2016-Nov-27 15:05N 44°07' E 014°02'913.2
2016-Nov-27 14:25N 44°14' E 013°56'1213.3
2016-Nov-27 13:33N 44°24' E 013°47'1313.4
2016-Nov-27 12:33N 44°35' E 013°37'1313.4
2016-Nov-27 11:33N 44°46' E 013°26'1413.5
2016-Nov-27 10:33N 44°57' E 013°16'1413.6
2016-Nov-27 09:33N 45°09' E 013°05'1313.3
2016-Nov-27 08:33N 45°22' E 013°02'1313.1
2016-Nov-27 07:33N 45°31' E 013°15'1313.0
2016-Nov-27 06:33N 45°37' E 013°31'10 9.1
2016-Nov-27 05:30N 45°34' E 013°44'0 0.0
2016-Nov-27 04:24N 45°34' E 013°44'0 0.0
2016-Nov-27 03:30N 45°34' E 013°44'0 0.0
2016-Nov-27 02:30N 45°34' E 013°44'0 0.0
2016-Nov-27 01:24N 45°34' E 013°44'0 0.0
2016-Nov-27 00:24N 45°34' E 013°44'0 0.0
2016-Nov-26 23:30N 45°34' E 013°44'0 0.0
2016-Nov-26 22:30N 45°34' E 013°44'0 0.0
2016-Nov-26 21:12N 45°34' E 013°44'0 0.0
2016-Nov-26 20:30N 45°34' E 013°44'0 0.0
2016-Nov-26 19:30N 45°34' E 013°44'0 0.0
2016-Nov-26 18:17N 45°34' E 013°44'0 0.0
2016-Nov-26 17:29N 45°34' E 013°44'0 0.0
2016-Nov-26 16:29N 45°34' E 013°44'0 0.0
2016-Nov-26 15:17N 45°34' E 013°44'0 0.0
2016-Nov-26 14:11N 45°34' E 013°44'0 0.0
2016-Nov-26 13:23N 45°34' E 013°44'0 0.0
2016-Nov-26 12:23N 45°34' E 013°44'0 0.0
2016-Nov-26 11:29N 45°34' E 013°44'0 0.0
2016-Nov-26 10:23N 45°34' E 013°44'0 0.0
2016-Nov-26 09:29N 45°34' E 013°44'0 0.0
2016-Nov-26 08:23N 45°34' E 013°44'0 0.0
2016-Nov-26 07:29N 45°34' E 013°44'0 0.0
2016-Nov-26 06:29N 45°34' E 013°44'0 0.0
2016-Nov-26 05:29N 45°34' E 013°44'0 0.0
2016-Nov-26 04:29N 45°34' E 013°44'0 0.0
2016-Nov-26 03:29N 45°34' E 013°44'0 0.0
2016-Nov-26 02:29N 45°34' E 013°44'0 0.0
2016-Nov-26 01:29N 45°34' E 013°44'0 0.0
2016-Nov-26 00:29N 45°34' E 013°44'0 0.0
2016-Nov-25 23:29N 45°34' E 013°44'0 0.0
2016-Nov-25 22:29N 45°34' E 013°44'0 0.0
2016-Nov-25 21:29N 45°34' E 013°44'0 0.0
2016-Nov-25 20:29N 45°34' E 013°44'0 0.0
2016-Nov-25 19:23N 45°34' E 013°44'0 0.0
2016-Nov-25 18:29N 45°34' E 013°44'0 0.0
2016-Nov-25 17:29N 45°34' E 013°44'0 0.0
2016-Nov-25 15:29N 45°34' E 013°44'0 0.0
2016-Nov-25 14:11N 45°34' E 013°44'0 0.0
2016-Nov-25 13:29N 45°34' E 013°44'0 0.0
2016-Nov-25 12:05N 45°34' E 013°44'0 0.0
2016-Nov-25 11:29N 45°34' E 013°44'1 0.8
2016-Nov-25 10:33N 45°34' E 013°43'1 1.0
2016-Nov-25 09:27N 45°34' E 013°42'0 0.0
2016-Nov-25 08:33N 45°34' E 013°42'0 0.0
2016-Nov-25 07:33N 45°34' E 013°42'0 0.0
2016-Nov-25 06:33N 45°34' E 013°42'0 0.0
2016-Nov-25 05:33N 45°34' E 013°42'0 0.0
2016-Nov-25 04:33N 45°34' E 013°42'0 0.0
2016-Nov-25 03:27N 45°34' E 013°42'0 0.0
2016-Nov-25 02:33N 45°34' E 013°42'0 0.0
2016-Nov-25 01:33N 45°34' E 013°42'0 0.0
2016-Nov-25 00:27N 45°34' E 013°42'0 0.0
2016-Nov-24 23:33N 45°34' E 013°42'0 0.0
2016-Nov-24 22:27N 45°34' E 013°42'0 0.0
2016-Nov-24 21:15N 45°34' E 013°42'0 0.0
2016-Nov-24 20:33N 45°34' E 013°42'0 0.0
2016-Nov-24 19:09N 45°34' E 013°42'0 0.0
2016-Nov-24 18:27N 45°34' E 013°42'0 0.0
2016-Nov-24 17:33N 45°34' E 013°42'0 0.0
2016-Nov-24 16:33N 45°34' E 013°42'0 0.1
2016-Nov-24 15:27N 45°34' E 013°42'0 0.0
2016-Nov-24 14:21N 45°34' E 013°42'0 0.0
2016-Nov-24 13:09N 45°34' E 013°42'0 0.0
2016-Nov-24 12:33N 45°34' E 013°42'0 0.1
2016-Nov-24 11:33N 45°34' E 013°42'0 0.0
2016-Nov-24 09:27N 45°34' E 013°42'0 0.0
2016-Nov-24 08:33N 45°34' E 013°42'0 0.0
2016-Nov-24 07:32N 45°34' E 013°42'0 0.0
2016-Nov-24 05:26N 45°34' E 013°42'0 0.0
2016-Nov-24 04:32N 45°34' E 013°42'0 0.0
2016-Nov-24 03:26N 45°34' E 013°42'0 0.0
2016-Nov-24 02:14N 45°34' E 013°42'0 0.0
2016-Nov-24 01:32N 45°34' E 013°42'0 0.0
2016-Nov-24 00:14N 45°34' E 013°42'0 0.0
2016-Nov-23 23:32N 45°34' E 013°42'0 0.0
2016-Nov-23 22:26N 45°34' E 013°42'0 0.0
2016-Nov-23 21:26N 45°34' E 013°42'0 0.0
2016-Nov-23 20:32N 45°34' E 013°42'0 0.0
2016-Nov-23 19:32N 45°34' E 013°42'0 0.0
2016-Nov-23 18:32N 45°34' E 013°42'0 0.0
2016-Nov-23 17:26N 45°34' E 013°42'0 0.1
2016-Nov-23 16:26N 45°34' E 013°42'0 0.1
2016-Nov-23 15:08N 45°34' E 013°42'0 0.0
2016-Nov-23 14:14N 45°34' E 013°42'0 0.0
2016-Nov-23 13:20N 45°34' E 013°42'0 0.0
2016-Nov-23 12:26N 45°34' E 013°42'0 0.2
2016-Nov-23 11:32N 45°34' E 013°42'0 0.0
2016-Nov-23 09:26N 45°34' E 013°42'0 0.0
2016-Nov-23 08:32N 45°34' E 013°42'0 0.0
2016-Nov-23 07:20N 45°34' E 013°42'0 0.0
2016-Nov-23 06:32N 45°34' E 013°42'0 0.0
2016-Nov-23 03:08N 45°34' E 013°42'0 0.0
2016-Nov-23 02:32N 45°34' E 013°42'0 0.0
2016-Nov-23 00:26N 45°34' E 013°42'0 0.0
2016-Nov-22 23:19N 45°34' E 013°42'0 0.0
2016-Nov-22 22:31N 45°34' E 013°42'0 0.0
2016-Nov-22 20:34N 45°34' E 013°42'7 7.1
2016-Nov-22 19:34N 45°35' E 013°32'2110.7
2016-Nov-22 17:34N 45°18' E 013°13'1312.9
2016-Nov-22 16:33N 45°05' E 013°17'1312.9
2016-Nov-22 15:34N 44°54' E 013°25'1312.9
2016-Nov-22 14:33N 44°43' E 013°35'1313.0
2016-Nov-22 13:34N 44°32' E 013°45'  

Dump ship's entire track history